createdAt,value
2023-02-12T00:01:04.291Z,102865.63
2023-02-12T00:05:08.020Z,102860.25
2023-02-12T00:09:11.114Z,102859.66
2023-02-12T00:13:16.147Z,102864.44
2023-02-12T00:17:19.193Z,102861.91
2023-02-12T00:21:22.599Z,102872.75
2023-02-12T00:25:25.648Z,102872.63
2023-02-12T00:29:30.034Z,102874.34
2023-02-12T00:33:33.042Z,102871.63
2023-02-12T00:37:36.068Z,102863.75
2023-02-12T00:41:39.138Z,102872.81
2023-02-12T00:45:43.489Z,102863.38
2023-02-12T00:49:46.569Z,102865.94
2023-02-12T00:53:49.605Z,102873.72
2023-02-12T00:57:52.677Z,102864.44
2023-02-12T01:01:57.689Z,102859.53
2023-02-12T01:06:01.292Z,102855.81
2023-02-12T01:10:04.461Z,102866.72
2023-02-12T01:14:08.737Z,102863.72
2023-02-12T01:18:13.119Z,102854.09
2023-02-12T01:22:16.231Z,102854.44
2023-02-12T01:26:21.567Z,102853.81
2023-02-12T01:30:24.935Z,102850.69
2023-02-12T01:34:29.306Z,102846.97
2023-02-12T01:38:32.718Z,102851.81
2023-02-12T01:42:36.453Z,102846.09
2023-02-12T01:46:40.031Z,102844.84
2023-02-12T01:50:46.553Z,102842.91
2023-02-12T01:54:51.751Z,102843.38
2023-02-12T01:58:57.807Z,102834.84
2023-02-12T02:03:03.013Z,102836.88
2023-02-12T02:07:09.607Z,102834.19
2023-02-12T02:11:26.650Z,102838.56
2023-02-12T02:15:32.472Z,102838.28
2023-02-12T02:19:56.063Z,102825.69
2023-02-12T02:24:24.279Z,102832.53
2023-02-12T02:28:50.808Z,102827.94
2023-02-12T02:33:05.713Z,102830.81
2023-02-12T02:37:17.107Z,102832.75
2023-02-12T02:41:28.484Z,102832.22
2023-02-12T02:45:38.944Z,102831.91
2023-02-12T02:49:48.315Z,102832.16
2023-02-12T02:53:58.030Z,102832.44
2023-02-12T02:58:07.079Z,102824.00
2023-02-12T03:02:16.346Z,102825.53
2023-02-12T03:06:28.643Z,102833.88
2023-02-12T03:10:34.841Z,102824.03
2023-02-12T03:14:42.148Z,102820.28
2023-02-12T03:18:52.688Z,102821.84
2023-02-12T03:23:02.723Z,102829.91
2023-02-12T03:27:10.203Z,102821.19
2023-02-12T03:31:22.400Z,102815.88
2023-02-12T03:35:32.935Z,102812.84
2023-02-12T03:39:46.676Z,102815.13
2023-02-12T03:43:54.581Z,102809.84
2023-02-12T03:48:03.879Z,102818.94
2023-02-12T03:52:07.098Z,102822.38
2023-02-12T03:56:16.619Z,102827.25
2023-02-12T04:00:22.767Z,102814.56
2023-02-12T04:04:28.059Z,102820.00
2023-02-12T04:08:32.864Z,102826.38
2023-02-12T04:12:42.136Z,102835.44
2023-02-12T04:16:49.851Z,102827.59
2023-02-12T04:21:00.369Z,102831.34
2023-02-12T04:25:14.016Z,102836.06
2023-02-12T04:29:32.047Z,102840.13
2023-02-12T04:33:41.044Z,102846.69
2023-02-12T04:37:47.412Z,102857.00
2023-02-12T04:41:50.668Z,102851.78
2023-02-12T04:45:55.457Z,102853.41
2023-02-12T04:49:58.629Z,102847.97
2023-02-12T04:54:01.718Z,102859.84
2023-02-12T04:58:05.254Z,102859.84
2023-02-12T05:02:09.587Z,102866.13
2023-02-12T05:06:12.603Z,102856.94
2023-02-12T05:10:15.713Z,102848.97
2023-02-12T05:14:18.719Z,102856.47
2023-02-12T05:18:23.101Z,102853.13
2023-02-12T05:22:26.248Z,102856.94
2023-02-12T05:26:29.270Z,102854.50
2023-02-12T05:30:32.495Z,102860.66
2023-02-12T05:34:37.394Z,102865.84
2023-02-12T05:38:40.498Z,102865.22
2023-02-12T05:42:43.528Z,102881.56
2023-02-12T05:46:46.664Z,102879.97
2023-02-12T05:50:53.151Z,102875.53
2023-02-12T05:54:56.322Z,102882.09
2023-02-12T05:59:02.381Z,102880.72
2023-02-12T06:03:05.447Z,102883.22
2023-02-12T06:07:09.875Z,102887.72
2023-02-12T06:11:15.016Z,102881.41
2023-02-12T06:15:18.103Z,102882.53
2023-02-12T06:19:22.151Z,102889.19
2023-02-12T06:23:26.636Z,102878.06
2023-02-12T06:27:29.647Z,102890.13
2023-02-12T06:31:34.651Z,102894.13
2023-02-12T06:35:38.335Z,102891.88
2023-02-12T06:39:42.719Z,102890.13
2023-02-12T06:43:45.992Z,102888.16
2023-02-12T06:47:49.039Z,102891.88
2023-02-12T06:51:52.096Z,102897.50
2023-02-12T06:55:56.789Z,102900.50
2023-02-12T07:00:00.047Z,102899.88
2023-02-12T07:04:04.272Z,102907.25
2023-02-12T07:08:07.373Z,102907.94
2023-02-12T07:12:11.757Z,102910.81
2023-02-12T07:16:17.039Z,102922.28
2023-02-12T07:20:20.256Z,102926.44
2023-02-12T07:24:23.326Z,102927.97
2023-02-12T07:28:28.477Z,102929.69
2023-02-12T07:32:33.202Z,102931.56
2023-02-12T07:36:36.251Z,102929.50
2023-02-12T07:40:39.327Z,102926.38
2023-02-12T07:44:43.687Z,102934.88
2023-02-12T07:48:47.953Z,102927.19
2023-02-12T07:52:51.224Z,102915.41
2023-02-12T07:56:55.190Z,102913.09
2023-02-12T08:00:59.630Z,102918.09
2023-02-12T08:05:02.656Z,102924.91
2023-02-12T08:09:08.211Z,102922.19
2023-02-12T08:13:11.296Z,102925.56
2023-02-12T08:17:15.737Z,102923.56
2023-02-12T08:21:21.229Z,102929.94
2023-02-12T08:25:24.280Z,102915.38
2023-02-12T08:29:29.779Z,102923.72
2023-02-12T08:33:34.118Z,102924.00
2023-02-12T08:37:37.142Z,102925.25
2023-02-12T08:41:42.285Z,102923.69
2023-02-12T08:45:45.357Z,102937.31
2023-02-12T08:49:49.860Z,102935.25
2023-02-12T08:53:54.447Z,102925.50
2023-02-12T08:57:58.282Z,102928.69
2023-02-12T09:02:01.986Z,102924.25
2023-02-12T09:06:09.077Z,102916.34
2023-02-12T09:10:12.588Z,102910.44
2023-02-12T09:14:17.501Z,102910.16
2023-02-12T09:18:20.610Z,102914.19
2023-02-12T09:22:25.080Z,102902.72
2023-02-12T09:26:28.117Z,102904.69
2023-02-12T09:30:31.292Z,102901.38
2023-02-12T09:34:36.016Z,102906.25
2023-02-12T09:38:41.235Z,102900.34
2023-02-12T09:42:57.215Z,102894.00
2023-02-12T09:47:04.064Z,102896.59
2023-02-12T09:51:10.152Z,102895.16
2023-02-12T09:55:16.750Z,102889.59
2023-02-12T09:59:36.442Z,102881.53
2023-02-12T10:03:39.489Z,102886.03
2023-02-12T10:08:01.697Z,102888.34
2023-02-12T10:12:13.828Z,102895.66
2023-02-12T10:16:27.436Z,102906.75
2023-02-12T10:20:42.634Z,102905.41
2023-02-12T10:24:58.048Z,102893.72
2023-02-12T10:29:14.049Z,102886.84
2023-02-12T10:33:21.042Z,102893.13
2023-02-12T10:37:32.511Z,102903.09
2023-02-12T10:41:42.473Z,102891.22
2023-02-12T10:45:46.868Z,102894.16
2023-02-12T10:49:56.925Z,102880.31
2023-02-12T10:54:34.645Z,102886.09
2023-02-12T10:58:37.757Z,102887.50
2023-02-12T11:02:41.056Z,102880.63
2023-02-12T11:06:58.684Z,102888.75
2023-02-12T11:11:09.840Z,102890.88
2023-02-12T11:15:16.632Z,102884.19
2023-02-12T11:19:23.584Z,102884.78
2023-02-12T11:23:28.753Z,102886.78
2023-02-12T11:27:33.139Z,102880.88
2023-02-12T11:31:37.052Z,102887.38
2023-02-12T11:35:50.597Z,102876.28
2023-02-12T11:39:53.805Z,102870.03
2023-02-12T11:43:58.224Z,102864.38
2023-02-12T11:48:02.069Z,102863.63
2023-02-12T11:52:06.438Z,102861.00
2023-02-12T11:56:12.183Z,102853.81
2023-02-12T12:00:19.614Z,102854.28
2023-02-12T12:04:31.868Z,102853.13
2023-02-12T12:08:41.591Z,102838.34
2023-02-12T12:12:49.769Z,102841.94
2023-02-12T12:17:18.939Z,102841.94
2023-02-12T12:21:29.461Z,102821.78
2023-02-12T12:25:37.785Z,102828.66
2023-02-12T12:29:52.834Z,102810.41
2023-02-12T12:34:05.212Z,102808.84
2023-02-12T12:38:19.844Z,102785.56
2023-02-12T12:42:48.609Z,102780.19
2023-02-12T12:47:04.839Z,102781.72
2023-02-12T12:51:28.202Z,102778.09
2023-02-12T12:55:50.021Z,102767.69
2023-02-12T13:00:04.488Z,102768.88
2023-02-12T13:04:46.630Z,102758.78
2023-02-12T13:09:11.913Z,102761.00
2023-02-12T13:13:27.406Z,102750.31
2023-02-12T13:17:36.960Z,102742.28
2023-02-12T13:21:48.300Z,102741.72
2023-02-12T13:26:03.301Z,102740.63
2023-02-12T13:30:18.387Z,102732.03
2023-02-12T13:34:23.483Z,102744.44
2023-02-12T13:38:29.797Z,102739.69
2023-02-12T13:42:48.753Z,102734.06
2023-02-12T13:46:57.357Z,102749.28
2023-02-12T13:51:07.961Z,102744.75
2023-02-12T13:55:24.202Z,102733.31
2023-02-12T13:59:43.583Z,102725.78
2023-02-12T14:03:46.650Z,102728.38
2023-02-12T14:07:52.384Z,102724.31
2023-02-12T14:11:55.569Z,102735.88
2023-02-12T14:16:01.186Z,102746.81
2023-02-12T14:20:21.521Z,102746.22
2023-02-12T14:24:51.485Z,102744.16
2023-02-12T14:28:57.687Z,102749.72
2023-02-12T14:33:25.764Z,102746.91
2023-02-12T14:37:38.170Z,102742.09
2023-02-12T14:41:44.312Z,102743.34
2023-02-12T14:45:47.432Z,102742.53
2023-02-12T14:49:55.784Z,102748.91
2023-02-12T14:54:02.065Z,102748.31
2023-02-12T14:58:07.528Z,102735.75
2023-02-12T15:02:17.918Z,102732.78
2023-02-12T15:06:27.736Z,102727.41
2023-02-12T15:10:33.627Z,102732.91
2023-02-12T15:14:38.911Z,102733.06
2023-02-12T15:18:52.459Z,102741.81
2023-02-12T15:22:56.940Z,102742.84
2023-02-12T15:27:01.207Z,102738.13
2023-02-12T15:31:10.476Z,102744.38
2023-02-12T15:35:24.245Z,102738.44
2023-02-12T15:39:38.750Z,102737.00
2023-02-12T15:43:42.816Z,102734.59
2023-02-12T15:47:47.331Z,102733.13
2023-02-12T15:51:50.608Z,102728.09
2023-02-12T15:55:55.533Z,102730.41
2023-02-12T16:00:04.957Z,102725.56
2023-02-12T16:04:16.210Z,102723.84
2023-02-12T16:08:25.277Z,102722.09
2023-02-12T16:12:32.794Z,102707.75
2023-02-12T16:16:46.092Z,102722.13
2023-02-12T16:20:50.095Z,102720.72
2023-02-12T16:24:56.555Z,102722.69
2023-02-12T16:29:01.099Z,102712.19
2023-02-12T16:33:04.203Z,102721.97
2023-02-12T16:37:49.350Z,102728.44
2023-02-12T16:41:56.422Z,102722.91
2023-02-12T16:46:06.859Z,102722.06
2023-02-12T16:50:17.408Z,102724.38
2023-02-12T16:54:29.035Z,102725.28
2023-02-12T16:58:32.237Z,102726.69
2023-02-12T17:02:37.471Z,102729.91
2023-02-12T17:06:40.520Z,102727.59
2023-02-12T17:10:44.788Z,102726.88
2023-02-12T17:14:48.178Z,102721.59
2023-02-12T17:18:52.573Z,102730.94
2023-02-12T17:22:57.320Z,102731.09
2023-02-12T17:27:00.366Z,102727.22
2023-02-12T17:31:06.285Z,102729.38
2023-02-12T17:35:11.093Z,102742.16
2023-02-12T17:39:16.018Z,102735.25
2023-02-12T17:43:19.128Z,102732.28
2023-02-12T17:47:22.231Z,102730.69
2023-02-12T17:51:26.809Z,102727.13
2023-02-12T17:55:29.929Z,102737.31
2023-02-12T17:59:33.048Z,102744.91
2023-02-12T18:03:36.291Z,102739.63
2023-02-12T18:07:40.748Z,102746.41
2023-02-12T18:11:46.336Z,102741.38
2023-02-12T18:15:49.399Z,102742.25
2023-02-12T18:19:52.732Z,102745.88
2023-02-12T18:23:57.184Z,102740.41
2023-02-12T18:28:01.373Z,102747.31
2023-02-12T18:32:04.662Z,102744.41
2023-02-12T18:36:09.975Z,102746.41
2023-02-12T18:40:14.787Z,102750.13
2023-02-12T18:44:17.889Z,102746.69
2023-02-12T18:48:20.920Z,102754.72
2023-02-12T18:52:23.981Z,102753.25
2023-02-12T18:56:29.316Z,102752.69
2023-02-12T19:00:32.375Z,102758.66
2023-02-12T19:04:35.475Z,102760.94
2023-02-12T19:08:38.782Z,102754.94
2023-02-12T19:12:43.613Z,102751.22
2023-02-12T19:16:46.746Z,102750.03
2023-02-12T19:20:49.757Z,102755.34
2023-02-12T19:24:52.817Z,102749.16
2023-02-12T19:28:57.969Z,102744.84
2023-02-12T19:33:01.039Z,102747.41
2023-02-12T19:37:04.207Z,102748.53
2023-02-12T19:41:09.767Z,102738.44
2023-02-12T19:45:14.238Z,102733.72
2023-02-12T19:49:19.421Z,102726.66
2023-02-12T19:53:22.503Z,102737.22
2023-02-12T19:57:25.598Z,102736.34
2023-02-12T20:01:30.322Z,102728.03
2023-02-12T20:05:33.420Z,102745.19
2023-02-12T20:09:36.961Z,102741.25
2023-02-12T20:13:40.140Z,102737.88
2023-02-12T20:17:44.529Z,102738.69
2023-02-12T20:21:48.900Z,102738.63
2023-02-12T20:25:52.050Z,102741.72
2023-02-12T20:29:55.109Z,102735.72
2023-02-12T20:34:02.204Z,102742.25
2023-02-12T20:38:05.578Z,102754.59
2023-02-12T20:42:08.614Z,102743.94
2023-02-12T20:46:13.377Z,102747.13
2023-02-12T20:50:18.063Z,102750.75
2023-02-12T20:54:21.370Z,102753.41
2023-02-12T20:58:24.402Z,102749.97
2023-02-12T21:02:27.464Z,102752.72
2023-02-12T21:06:32.282Z,102743.72
2023-02-12T21:10:35.330Z,102750.34
2023-02-12T21:14:38.435Z,102745.38
2023-02-12T21:18:41.733Z,102741.50
2023-02-12T21:22:46.101Z,102746.09
2023-02-12T21:26:49.697Z,102745.78
2023-02-12T21:30:52.726Z,102740.47
2023-02-12T21:34:55.779Z,102740.19
2023-02-12T21:39:00.588Z,102740.91
2023-02-12T21:43:03.613Z,102731.75
2023-02-12T21:47:07.416Z,102741.06
2023-02-12T21:51:19.551Z,102738.94
2023-02-12T21:55:23.981Z,102728.56
2023-02-12T21:59:30.651Z,102723.41
2023-02-12T22:03:34.867Z,102732.31
2023-02-12T22:07:37.936Z,102734.75
2023-02-12T22:11:42.819Z,102739.72
2023-02-12T22:15:45.848Z,102740.28
2023-02-12T22:19:48.869Z,102735.63
2023-02-12T22:23:52.532Z,102739.94
2023-02-12T22:27:56.915Z,102742.78
2023-02-12T22:32:00.214Z,102746.13
2023-02-12T22:36:05.248Z,102739.22
2023-02-12T22:40:10.691Z,102744.78
2023-02-12T22:44:16.168Z,102743.19
2023-02-12T22:48:19.185Z,102745.72
2023-02-12T22:52:22.227Z,102743.56
2023-02-12T22:56:26.065Z,102751.81
2023-02-12T23:00:30.535Z,102752.22
2023-02-12T23:04:33.691Z,102753.38
2023-02-12T23:08:36.842Z,102753.03
2023-02-12T23:12:39.919Z,102763.72
2023-02-12T23:16:44.777Z,102767.94
2023-02-12T23:20:48.127Z,102759.31
2023-02-12T23:24:51.916Z,102767.72
2023-02-12T23:28:56.116Z,102763.28
2023-02-12T23:33:00.609Z,102757.28
2023-02-12T23:37:03.681Z,102752.16
2023-02-12T23:41:06.993Z,102751.00
2023-02-12T23:45:10.886Z,102744.63
2023-02-12T23:49:15.285Z,102735.88
2023-02-12T23:53:19.220Z,102724.75
2023-02-12T23:57:22.301Z,102716.69
